createdAt,value
2022-11-25T00:01:11.962Z,2.40
2022-11-25T00:03:39.237Z,2.88
2022-11-25T00:06:27.552Z,2.72
2022-11-25T00:08:55.961Z,2.00
2022-11-25T00:11:22.564Z,2.55
2022-11-25T00:13:49.453Z,2.15
2022-11-25T00:16:18.028Z,2.30
2022-11-25T00:18:47.025Z,2.35
2022-11-25T00:21:15.089Z,2.65
2022-11-25T00:23:41.733Z,2.33
2022-11-25T00:26:09.512Z,2.80
2022-11-25T00:28:36.200Z,2.13
2022-11-25T00:31:11.921Z,2.00
2022-11-25T00:33:38.851Z,2.30
2022-11-25T00:36:06.565Z,1.80
2022-11-25T00:38:33.436Z,2.08
2022-11-25T00:41:19.946Z,2.63
2022-11-25T00:44:06.516Z,1.77
2022-11-25T00:46:33.110Z,2.20
2022-11-25T00:48:59.683Z,3.03
2022-11-25T00:51:26.258Z,2.35
2022-11-25T00:53:58.620Z,1.70
2022-11-25T00:56:25.623Z,2.78
2022-11-25T00:58:52.993Z,1.60
2022-11-25T01:01:19.611Z,2.83
2022-11-25T01:03:49.232Z,2.30
2022-11-25T01:06:15.947Z,1.95
2022-11-25T01:08:42.582Z,2.25
2022-11-25T01:11:11.649Z,2.22
2022-11-25T01:13:38.216Z,1.90
2022-11-25T01:16:05.890Z,2.60
2022-11-25T01:18:32.757Z,2.47
2022-11-25T01:21:16.343Z,2.45
2022-11-25T01:23:43.215Z,2.40
2022-11-25T01:26:12.248Z,2.08
2022-11-25T01:28:39.111Z,1.52
2022-11-25T01:31:08.231Z,1.55
2022-11-25T01:33:34.948Z,2.00
2022-11-25T01:36:06.007Z,2.10
2022-11-25T01:38:32.851Z,1.75
2022-11-25T01:40:59.697Z,2.53
2022-11-25T01:43:26.610Z,2.38
2022-11-25T01:45:54.171Z,1.73
2022-11-25T01:48:25.366Z,1.75
2022-11-25T01:50:51.965Z,2.03
2022-11-25T01:53:19.134Z,1.80
2022-11-25T01:55:49.179Z,1.50
2022-11-25T01:58:18.901Z,2.35
2022-11-25T02:00:51.166Z,1.92
2022-11-25T02:03:22.402Z,1.80
2022-11-25T02:06:11.560Z,1.80
2022-11-25T02:08:38.109Z,1.67
2022-11-25T02:11:04.867Z,1.42
2022-11-25T02:13:32.182Z,1.83
2022-11-25T02:15:58.822Z,1.40
2022-11-25T02:18:25.841Z,1.60
2022-11-25T02:20:52.563Z,1.30
2022-11-25T02:23:40.558Z,1.83
2022-11-25T02:26:07.173Z,1.58
2022-11-25T02:28:33.838Z,1.50
2022-11-25T02:31:00.574Z,1.88
2022-11-25T02:33:27.453Z,1.35
2022-11-25T02:35:56.979Z,1.50
2022-11-25T02:38:40.917Z,1.70
2022-11-25T02:41:12.080Z,2.50
2022-11-25T02:43:39.023Z,1.85
2022-11-25T02:46:21.667Z,1.83
2022-11-25T02:51:35.728Z,1.55
2022-11-25T02:54:02.452Z,1.65
2022-11-25T02:56:31.115Z,1.70
2022-11-25T02:58:57.851Z,1.75
2022-11-25T03:01:24.563Z,1.80
2022-11-25T03:03:51.208Z,1.65
2022-11-25T03:06:17.835Z,2.53
2022-11-25T03:08:44.523Z,2.00
2022-11-25T03:11:11.165Z,1.42
2022-11-25T03:13:37.804Z,1.85
2022-11-25T03:16:04.804Z,1.48
2022-11-25T03:18:31.449Z,1.83
2022-11-25T03:20:58.030Z,1.50
2022-11-25T03:23:24.819Z,1.33
2022-11-25T03:25:51.456Z,1.85
2022-11-25T03:28:18.120Z,1.55
2022-11-25T03:30:44.750Z,1.52
2022-11-25T03:33:11.409Z,1.63
2022-11-25T03:35:38.069Z,1.60
2022-11-25T03:38:04.676Z,1.67
2022-11-25T03:40:31.318Z,1.50
2022-11-25T03:42:57.945Z,1.63
2022-11-25T03:45:24.627Z,1.25
2022-11-25T03:47:51.317Z,1.33
2022-11-25T03:50:17.976Z,1.90
2022-11-25T03:52:44.596Z,1.40
2022-11-25T03:55:12.937Z,1.92
2022-11-25T03:57:39.768Z,1.45
2022-11-25T04:00:07.318Z,1.58
2022-11-25T04:02:33.992Z,1.50
2022-11-25T04:05:00.676Z,2.08
2022-11-25T04:07:27.325Z,1.88
2022-11-25T04:09:53.929Z,2.42
2022-11-25T04:12:40.439Z,2.47
2022-11-25T04:15:07.633Z,2.20
2022-11-25T04:17:34.394Z,2.30
2022-11-25T04:20:00.978Z,1.92
2022-11-25T04:22:27.557Z,1.60
2022-11-25T04:24:54.168Z,1.70
2022-11-25T04:27:20.779Z,1.65
2022-11-25T04:29:47.396Z,1.80
2022-11-25T04:32:14.243Z,2.15
2022-11-25T04:34:40.837Z,2.20
2022-11-25T04:37:07.471Z,2.83
2022-11-25T04:39:34.037Z,2.00
2022-11-25T04:42:20.600Z,2.00
2022-11-25T04:45:01.347Z,2.25
2022-11-25T04:47:33.876Z,2.58
2022-11-25T04:50:00.498Z,2.08
2022-11-25T04:52:27.320Z,1.77
2022-11-25T04:54:54.096Z,2.53
2022-11-25T04:57:20.891Z,2.10
2022-11-25T04:59:47.720Z,2.22
2022-11-25T05:02:19.850Z,2.03
2022-11-25T05:04:47.344Z,2.00
2022-11-25T05:07:14.398Z,1.83
2022-11-25T05:09:41.261Z,2.28
2022-11-25T05:12:08.410Z,2.00
2022-11-25T05:14:35.839Z,1.83
2022-11-25T05:17:03.771Z,2.10
2022-11-25T05:19:30.516Z,1.98
2022-11-25T05:21:57.157Z,2.78
2022-11-25T05:24:25.024Z,2.08
2022-11-25T05:26:51.892Z,2.40
2022-11-25T05:29:18.532Z,1.88
2022-11-25T05:31:45.118Z,1.73
2022-11-25T05:34:11.743Z,1.60
2022-11-25T05:36:38.327Z,1.60
2022-11-25T05:39:04.975Z,1.67
2022-11-25T05:41:31.766Z,1.73
2022-11-25T05:43:58.496Z,1.92
2022-11-25T05:46:25.142Z,1.90
2022-11-25T05:48:54.557Z,1.75
2022-11-25T05:51:21.679Z,1.73
2022-11-25T05:53:48.420Z,1.52
2022-11-25T05:56:15.084Z,2.00
2022-11-25T05:58:41.709Z,1.80
2022-11-25T06:01:09.374Z,1.30
2022-11-25T06:03:36.276Z,2.08
2022-11-25T06:06:03.401Z,1.83
2022-11-25T06:08:30.051Z,2.45
2022-11-25T06:10:56.737Z,2.65
2022-11-25T06:16:16.072Z,1.88
2022-11-25T06:18:42.717Z,2.08
2022-11-25T06:21:09.716Z,1.80
2022-11-25T06:23:36.851Z,2.00
2022-11-25T06:26:07.338Z,1.70
2022-11-25T06:28:34.230Z,1.63
2022-11-25T06:31:05.589Z,2.22
2022-11-25T06:33:32.624Z,2.40
2022-11-25T06:35:59.207Z,1.90
2022-11-25T06:38:25.831Z,1.67
2022-11-25T06:40:54.150Z,1.80
2022-11-25T06:43:23.084Z,1.73
2022-11-25T06:45:49.710Z,1.80
2022-11-25T06:48:16.306Z,1.48
2022-11-25T06:50:42.873Z,1.67
2022-11-25T06:53:09.557Z,1.30
2022-11-25T06:55:36.177Z,1.40
2022-11-25T06:58:28.315Z,2.35
2022-11-25T07:00:49.342Z,1.90
2022-11-25T07:03:15.962Z,1.83
2022-11-25T07:05:42.638Z,2.08
2022-11-25T07:08:11.237Z,1.85
2022-11-25T07:10:37.889Z,1.90
2022-11-25T07:13:04.478Z,2.53
2022-11-25T07:15:31.249Z,3.10
2022-11-25T07:17:58.028Z,2.38
2022-11-25T07:20:25.347Z,2.33
2022-11-25T07:22:51.973Z,2.03
2022-11-25T07:25:18.622Z,2.55
2022-11-25T07:27:45.186Z,2.83
2022-11-25T07:30:54.892Z,3.17
2022-11-25T07:32:58.618Z,3.28
2022-11-25T07:35:25.430Z,2.83
2022-11-25T07:37:53.048Z,2.25
2022-11-25T07:40:19.990Z,2.22
2022-11-25T07:42:46.675Z,2.42
2022-11-25T07:45:13.344Z,2.97
2022-11-25T07:47:39.921Z,2.65
2022-11-25T07:50:07.481Z,2.45
2022-11-25T07:52:34.084Z,2.13
2022-11-25T07:55:00.823Z,4.15
2022-11-25T07:57:27.493Z,2.10
2022-11-25T07:59:54.097Z,2.88
2022-11-25T08:02:20.781Z,1.83
2022-11-25T08:04:47.463Z,2.38
2022-11-25T08:07:14.125Z,1.88
2022-11-25T08:09:40.841Z,1.70
2022-11-25T08:12:07.484Z,1.80
2022-11-25T08:14:34.990Z,1.90
2022-11-25T08:17:03.177Z,2.25
2022-11-25T08:19:31.564Z,1.95
2022-11-25T08:21:58.355Z,1.85
2022-11-25T08:24:25.029Z,1.75
2022-11-25T08:26:52.085Z,2.65
2022-11-25T08:29:19.316Z,2.60
2022-11-25T08:31:46.243Z,2.55
2022-11-25T08:34:19.995Z,2.70
2022-11-25T08:36:48.835Z,2.47
2022-11-25T08:39:50.674Z,2.50
2022-11-25T08:42:04.415Z,2.38
2022-11-25T08:44:31.084Z,1.70
2022-11-25T08:46:57.846Z,1.98
2022-11-25T08:49:26.747Z,2.28
2022-11-25T08:51:53.450Z,2.33
2022-11-25T08:54:20.058Z,2.15
2022-11-25T08:56:46.706Z,2.58
2022-11-25T08:59:13.446Z,2.10
2022-11-25T09:01:40.103Z,2.35
2022-11-25T09:04:06.757Z,2.50
2022-11-25T09:06:33.416Z,3.03
2022-11-25T09:09:01.637Z,3.40
2022-11-25T09:11:28.510Z,3.47
2022-11-25T09:13:55.358Z,3.20
2022-11-25T09:16:22.142Z,2.92
2022-11-25T09:18:53.974Z,3.35
2022-11-25T09:21:23.072Z,2.83
2022-11-25T09:23:51.032Z,4.07
2022-11-25T09:26:26.147Z,2.97
2022-11-25T09:28:53.011Z,3.08
2022-11-25T09:31:20.059Z,2.80
2022-11-25T09:33:46.807Z,2.30
2022-11-25T09:36:13.998Z,2.72
2022-11-25T09:38:43.260Z,2.78
2022-11-25T09:42:09.896Z,2.80
2022-11-25T09:45:32.800Z,2.40
2022-11-25T09:48:39.285Z,1.90
2022-11-25T09:54:25.533Z,2.35
2022-11-25T09:56:55.825Z,1.90
2022-11-25T09:59:32.192Z,2.00
2022-11-25T10:02:02.880Z,1.95
2022-11-25T10:04:34.703Z,2.08
2022-11-25T10:07:02.499Z,1.60
2022-11-25T10:09:30.749Z,1.75
2022-11-25T10:12:01.051Z,1.98
2022-11-25T10:14:48.983Z,1.95
2022-11-25T10:17:42.035Z,1.77
2022-11-25T10:23:01.050Z,1.17
2022-11-25T10:25:31.809Z,1.55
2022-11-25T10:28:00.223Z,1.35
2022-11-25T10:30:47.945Z,1.85
2022-11-25T10:33:39.020Z,1.27
2022-11-25T10:39:05.826Z,1.08
2022-11-25T10:41:38.454Z,1.33
2022-11-25T10:47:11.756Z,1.30
2022-11-25T10:49:30.878Z,1.33
2022-11-25T10:51:57.828Z,1.77
2022-11-25T10:54:27.975Z,1.60
2022-11-25T10:56:57.778Z,0.98
2022-11-25T10:59:33.253Z,1.25
2022-11-25T11:02:27.682Z,1.00
2022-11-25T11:07:47.760Z,1.83
2022-11-25T11:10:20.602Z,1.52
2022-11-25T11:13:04.809Z,1.23
2022-11-25T11:15:33.302Z,1.40
2022-11-25T11:18:15.166Z,1.52
2022-11-25T11:20:46.505Z,2.00
2022-11-25T11:23:14.011Z,2.90
2022-11-25T11:25:42.883Z,1.55
2022-11-25T11:28:32.861Z,1.60
2022-11-25T11:31:04.007Z,1.30
2022-11-25T11:33:35.877Z,1.25
2022-11-25T11:36:15.435Z,1.27
2022-11-25T11:38:52.648Z,0.85
2022-11-25T11:41:29.042Z,2.40
2022-11-25T11:47:07.560Z,1.45
2022-11-25T11:49:58.546Z,1.70
2022-11-25T11:55:29.976Z,0.98
2022-11-25T11:58:20.505Z,1.08
2022-11-25T12:00:56.402Z,1.20
2022-11-25T12:03:24.448Z,1.60
2022-11-25T12:05:54.742Z,2.05
2022-11-25T12:08:34.345Z,1.40
2022-11-25T12:11:04.236Z,2.25
2022-11-25T12:13:38.734Z,2.38
2022-11-25T12:18:53.610Z,2.25
2022-11-25T12:24:31.601Z,2.30
2022-11-25T12:27:02.271Z,1.40
2022-11-25T12:29:37.130Z,1.10
2022-11-25T12:38:07.126Z,1.20
2022-11-25T12:40:37.536Z,1.00
2022-11-25T12:43:27.175Z,1.42
2022-11-25T12:46:19.025Z,1.98
2022-11-25T12:48:50.094Z,1.13
2022-11-25T12:51:42.235Z,1.33
2022-11-25T12:54:34.490Z,2.72
2022-11-25T12:57:47.402Z,1.60
2022-11-25T13:03:43.526Z,1.90
2022-11-25T13:06:49.227Z,1.60
2022-11-25T13:09:40.202Z,1.63
2022-11-25T13:15:27.213Z,1.42
2022-11-25T13:17:59.431Z,0.90
2022-11-25T13:20:32.331Z,1.58
2022-11-25T13:25:44.461Z,1.98
2022-11-25T13:28:31.990Z,2.05
2022-11-25T13:31:17.490Z,1.58
2022-11-25T13:33:49.359Z,1.38
2022-11-25T13:36:20.651Z,2.30
2022-11-25T13:41:37.263Z,1.85
2022-11-25T13:46:43.580Z,2.47
2022-11-25T13:49:29.908Z,1.95
2022-11-25T13:52:00.858Z,1.65
2022-11-25T13:54:33.581Z,2.42
2022-11-25T14:02:38.065Z,2.08
2022-11-25T14:05:29.170Z,2.22
2022-11-25T14:11:39.817Z,2.25
2022-11-25T14:14:34.393Z,2.08
2022-11-25T14:17:27.321Z,2.38
2022-11-25T14:20:04.594Z,3.97
2022-11-25T14:22:40.643Z,1.90
2022-11-25T14:25:26.689Z,2.40
2022-11-25T14:28:03.821Z,2.35
2022-11-25T14:30:30.948Z,2.63
2022-11-25T14:33:01.253Z,1.88
2022-11-25T14:35:45.012Z,5.32
2022-11-25T14:38:37.648Z,2.40
2022-11-25T14:41:07.547Z,2.60
2022-11-25T14:43:39.455Z,2.65
2022-11-25T14:46:11.635Z,3.97
2022-11-25T14:48:38.615Z,2.35
2022-11-25T14:51:07.235Z,2.30
2022-11-25T14:53:48.129Z,2.80
2022-11-25T14:56:16.225Z,2.55
2022-11-25T14:58:46.733Z,5.20
2022-11-25T15:01:25.668Z,3.58
2022-11-25T15:04:10.784Z,3.65
2022-11-25T15:06:39.058Z,2.55
2022-11-25T15:12:05.512Z,3.03
2022-11-25T15:14:48.904Z,2.83
2022-11-25T15:17:28.369Z,2.55
2022-11-25T15:19:56.220Z,2.65
2022-11-25T15:22:24.383Z,2.95
2022-11-25T15:24:55.626Z,2.20
2022-11-25T15:27:25.617Z,2.35
2022-11-25T15:29:52.635Z,3.45
2022-11-25T15:32:28.288Z,3.90
2022-11-25T15:34:56.078Z,3.30
2022-11-25T15:37:23.973Z,2.50
2022-11-25T15:40:11.106Z,3.85
2022-11-25T15:42:37.679Z,2.83
2022-11-25T15:45:08.989Z,4.63
2022-11-25T15:47:35.637Z,4.78
2022-11-25T15:50:05.046Z,3.13
2022-11-25T15:52:33.053Z,3.40
2022-11-25T15:55:35.677Z,3.72
2022-11-25T15:58:07.635Z,3.58
2022-11-25T16:00:34.271Z,3.30
2022-11-25T16:03:00.921Z,3.65
2022-11-25T16:05:31.716Z,3.22
2022-11-25T16:08:00.209Z,3.47
2022-11-25T16:10:31.631Z,3.45
2022-11-25T16:13:25.556Z,3.53
2022-11-25T16:18:54.398Z,3.15
2022-11-25T16:21:23.878Z,3.35
2022-11-25T16:23:56.923Z,3.10
2022-11-25T16:26:29.413Z,3.17
2022-11-25T16:28:57.376Z,5.00
2022-11-25T16:31:24.108Z,2.92
2022-11-25T16:33:55.219Z,4.15
2022-11-25T16:36:21.902Z,4.88
2022-11-25T16:38:52.198Z,15.63
2022-11-25T16:41:20.910Z,21.30
2022-11-25T16:43:47.532Z,6.38
2022-11-25T16:46:15.818Z,5.93
2022-11-25T16:48:42.434Z,3.95
2022-11-25T16:51:19.989Z,6.88
2022-11-25T16:53:46.793Z,6.85
2022-11-25T16:56:20.050Z,6.25
2022-11-25T16:58:46.697Z,4.40
2022-11-25T17:01:15.175Z,11.73
2022-11-25T17:03:42.092Z,5.70
2022-11-25T17:06:21.865Z,6.18
2022-11-25T17:08:48.996Z,5.15
2022-11-25T17:11:22.490Z,5.35
2022-11-25T17:13:50.731Z,4.90
2022-11-25T17:16:18.972Z,6.18
2022-11-25T17:18:45.865Z,5.28
2022-11-25T17:21:14.750Z,6.10
2022-11-25T17:23:42.569Z,5.88
2022-11-25T17:26:19.047Z,5.90
2022-11-25T17:28:53.337Z,6.32
2022-11-25T17:31:20.993Z,6.53
2022-11-25T17:33:47.726Z,6.05
2022-11-25T17:36:14.406Z,5.80
2022-11-25T17:38:41.710Z,6.35
2022-11-25T17:41:12.412Z,7.07
2022-11-25T17:43:39.022Z,7.45
2022-11-25T17:46:05.850Z,7.97
2022-11-25T17:48:32.512Z,7.50
2022-11-25T17:51:02.137Z,7.50
2022-11-25T17:53:31.476Z,6.57
2022-11-25T17:55:58.104Z,9.18
2022-11-25T17:58:24.776Z,9.93
2022-11-25T18:00:51.620Z,9.13
2022-11-25T18:03:18.384Z,9.70
2022-11-25T18:05:45.975Z,10.38
2022-11-25T18:08:12.568Z,10.40
2022-11-25T18:10:39.252Z,9.98
2022-11-25T18:13:06.253Z,11.45
2022-11-25T18:15:33.906Z,11.98
2022-11-25T18:18:04.604Z,10.65
2022-11-25T18:20:32.889Z,7.65
2022-11-25T18:22:59.947Z,7.60
2022-11-25T18:25:30.081Z,7.13
2022-11-25T18:27:56.783Z,6.93
2022-11-25T18:30:25.530Z,7.40
2022-11-25T18:32:52.202Z,8.43
2022-11-25T18:35:21.883Z,7.63
2022-11-25T18:37:48.618Z,5.30
2022-11-25T18:40:15.788Z,7.43
2022-11-25T18:42:43.156Z,6.95
2022-11-25T18:45:37.820Z,8.52
2022-11-25T18:48:25.180Z,7.53
2022-11-25T18:50:53.045Z,9.60
2022-11-25T18:53:19.784Z,7.90
2022-11-25T18:55:46.690Z,7.93
2022-11-25T18:58:22.585Z,8.02
2022-11-25T19:00:49.632Z,8.15
2022-11-25T19:03:19.345Z,7.82
2022-11-25T19:05:46.239Z,7.93
2022-11-25T19:08:12.886Z,7.78
2022-11-25T19:10:39.758Z,8.77
2022-11-25T19:13:07.640Z,7.72
2022-11-25T19:15:37.150Z,10.18
2022-11-25T19:18:04.899Z,7.72
2022-11-25T19:20:32.254Z,7.80
2022-11-25T19:23:01.079Z,7.50
2022-11-25T19:25:28.025Z,7.43
2022-11-25T19:27:56.716Z,9.18
2022-11-25T19:30:26.112Z,8.63
2022-11-25T19:32:54.799Z,8.85
2022-11-25T19:35:27.093Z,7.95
2022-11-25T19:37:53.766Z,8.75
2022-11-25T19:40:22.159Z,7.53
2022-11-25T19:42:48.817Z,8.18
2022-11-25T19:45:16.762Z,7.72
2022-11-25T19:47:44.578Z,8.35
2022-11-25T19:50:19.161Z,6.90
2022-11-25T19:52:45.726Z,7.30
2022-11-25T19:55:18.442Z,6.60
2022-11-25T19:57:45.324Z,8.00
2022-11-25T20:00:12.930Z,7.75
2022-11-25T20:02:39.639Z,7.47
2022-11-25T20:05:06.647Z,7.63
2022-11-25T20:07:33.389Z,11.98
2022-11-25T20:10:16.812Z,9.32
2022-11-25T20:12:43.435Z,10.52
2022-11-25T20:15:10.603Z,10.13
2022-11-25T20:17:37.930Z,10.10
2022-11-25T20:20:11.196Z,15.27
2022-11-25T20:22:38.208Z,15.48
2022-11-25T20:25:06.121Z,12.40
2022-11-25T20:27:34.220Z,12.15
2022-11-25T20:30:00.798Z,8.07
2022-11-25T20:32:29.240Z,12.10
2022-11-25T20:34:57.504Z,10.95
2022-11-25T20:37:25.133Z,9.00
2022-11-25T20:39:57.346Z,8.60
2022-11-25T20:42:24.119Z,10.38
2022-11-25T20:44:57.074Z,10.98
2022-11-25T20:47:26.015Z,9.30
2022-11-25T20:49:53.572Z,9.98
2022-11-25T20:52:26.632Z,17.90
2022-11-25T20:54:53.246Z,10.75
2022-11-25T20:57:19.860Z,17.23
2022-11-25T20:59:46.458Z,12.88
2022-11-25T21:02:13.410Z,8.52
2022-11-25T21:04:40.280Z,9.00
2022-11-25T21:07:10.593Z,7.00
2022-11-25T21:09:37.894Z,9.68
2022-11-25T21:12:06.589Z,8.52
2022-11-25T21:14:33.330Z,10.50
2022-11-25T21:17:00.377Z,9.93
2022-11-25T21:19:27.068Z,8.25
2022-11-25T21:21:53.666Z,7.97
2022-11-25T21:24:40.858Z,8.60
2022-11-25T21:27:14.490Z,8.65
2022-11-25T21:29:42.244Z,9.95
2022-11-25T21:32:20.678Z,9.95
2022-11-25T21:34:47.755Z,8.85
2022-11-25T21:37:14.768Z,9.88
2022-11-25T21:39:44.405Z,9.63
2022-11-25T21:42:17.103Z,9.93
2022-11-25T21:47:20.592Z,9.95
2022-11-25T21:49:47.586Z,8.77
2022-11-25T21:52:14.392Z,8.38
2022-11-25T21:54:41.151Z,9.40
2022-11-25T21:57:14.988Z,9.73
2022-11-25T21:59:41.776Z,9.68
2022-11-25T22:02:17.447Z,9.07
2022-11-25T22:04:44.272Z,9.60
2022-11-25T22:07:14.461Z,9.38
2022-11-25T22:09:41.562Z,10.25
2022-11-25T22:12:23.305Z,9.68
2022-11-25T22:14:50.105Z,9.23
2022-11-25T22:17:17.077Z,8.88
2022-11-25T22:19:44.010Z,8.90
2022-11-25T22:22:13.214Z,10.55
2022-11-25T22:24:40.151Z,8.27
2022-11-25T22:27:08.437Z,8.27
2022-11-25T22:29:35.425Z,10.55
2022-11-25T22:32:07.034Z,9.43
2022-11-25T22:34:36.757Z,7.93
2022-11-25T22:37:03.555Z,8.48
2022-11-25T22:39:30.157Z,8.07
2022-11-25T22:42:02.439Z,9.40
2022-11-25T22:44:34.847Z,7.55
2022-11-25T22:47:01.766Z,8.27
2022-11-25T22:49:34.267Z,7.82
2022-11-25T22:52:01.017Z,7.95
2022-11-25T22:54:27.670Z,8.00
2022-11-25T22:56:55.696Z,8.35
2022-11-25T22:59:22.414Z,7.78
2022-11-25T23:01:49.137Z,6.30
2022-11-25T23:04:18.048Z,7.35
2022-11-25T23:06:44.925Z,6.93
2022-11-25T23:09:14.390Z,7.25
2022-11-25T23:11:41.249Z,7.28
2022-11-25T23:14:07.892Z,9.00
2022-11-25T23:16:34.780Z,6.75
2022-11-25T23:19:04.284Z,7.80
2022-11-25T23:21:31.121Z,6.63
2022-11-25T23:23:58.007Z,7.38
2022-11-25T23:26:28.764Z,7.53
2022-11-25T23:28:58.966Z,7.35
2022-11-25T23:31:25.892Z,7.15
2022-11-25T23:33:56.210Z,8.18
2022-11-25T23:36:27.090Z,7.88
2022-11-25T23:38:56.607Z,7.97
2022-11-25T23:41:26.096Z,8.32
2022-11-25T23:43:53.200Z,7.15
2022-11-25T23:46:22.313Z,7.68
2022-11-25T23:48:54.455Z,7.50
2022-11-25T23:51:22.259Z,6.13
2022-11-25T23:53:48.824Z,6.80
2022-11-25T23:56:15.649Z,8.93
2022-11-25T23:58:42.380Z,6.35
